createdAt,value
2023-03-19T00:00:33.254Z,84.20
2023-03-19T00:03:01.414Z,83.60
2023-03-19T00:05:29.396Z,83.90
2023-03-19T00:07:58.723Z,83.80
2023-03-19T00:10:26.679Z,84.10
2023-03-19T00:12:54.701Z,84.20
2023-03-19T00:15:22.727Z,84.30
2023-03-19T00:17:50.698Z,84.20
2023-03-19T00:20:20.273Z,84.10
2023-03-19T00:22:48.258Z,83.60
2023-03-19T00:25:17.849Z,83.00
2023-03-19T00:27:46.222Z,83.20
2023-03-19T00:30:14.956Z,83.50
2023-03-19T00:32:43.046Z,83.30
2023-03-19T00:35:11.699Z,84.40
2023-03-19T00:37:39.685Z,84.10
2023-03-19T00:40:10.224Z,84.30
2023-03-19T00:42:39.494Z,83.60
2023-03-19T00:45:08.631Z,84.50
2023-03-19T00:47:36.931Z,85.70
2023-03-19T00:50:06.396Z,86.30
2023-03-19T00:52:34.336Z,87.00
2023-03-19T00:55:02.201Z,85.90
2023-03-19T00:57:30.396Z,86.40
2023-03-19T00:59:59.748Z,85.60
2023-03-19T01:02:27.995Z,84.70
2023-03-19T01:04:56.113Z,84.30
2023-03-19T01:07:24.057Z,84.20
2023-03-19T01:09:51.991Z,84.90
2023-03-19T01:12:20.352Z,85.10
2023-03-19T01:14:48.276Z,85.60
2023-03-19T01:17:17.581Z,85.70
2023-03-19T01:19:45.511Z,86.00
2023-03-19T01:22:14.230Z,86.50
2023-03-19T01:24:42.135Z,87.50
2023-03-19T01:27:10.655Z,87.80
2023-03-19T01:29:38.769Z,87.70
2023-03-19T01:32:07.417Z,87.40
2023-03-19T01:34:37.111Z,87.20
2023-03-19T01:37:05.010Z,86.00
2023-03-19T01:39:33.049Z,87.90
2023-03-19T01:42:03.227Z,88.90
2023-03-19T01:44:33.130Z,89.20
2023-03-19T01:47:03.939Z,89.10
2023-03-19T01:49:32.523Z,88.70
2023-03-19T01:52:06.019Z,88.30
2023-03-19T01:54:34.835Z,88.30
2023-03-19T01:57:06.752Z,89.30
2023-03-19T01:59:40.797Z,89.40
2023-03-19T02:02:14.166Z,88.20
2023-03-19T02:04:45.736Z,87.80
2023-03-19T02:07:15.670Z,87.40
2023-03-19T02:09:43.970Z,87.50
2023-03-19T02:12:13.485Z,87.30
2023-03-19T02:14:41.583Z,87.80
2023-03-19T02:17:09.815Z,88.30
2023-03-19T02:19:47.095Z,88.20
2023-03-19T02:22:20.536Z,88.10
2023-03-19T02:24:52.787Z,87.90
2023-03-19T02:27:22.233Z,87.80
2023-03-19T02:29:50.889Z,87.70
2023-03-19T02:32:19.082Z,87.40
2023-03-19T02:34:47.791Z,87.40
2023-03-19T02:37:20.555Z,87.30
2023-03-19T02:39:55.241Z,86.70
2023-03-19T02:42:26.885Z,86.50
2023-03-19T02:44:54.869Z,86.40
2023-03-19T02:47:22.933Z,85.60
2023-03-19T02:49:51.042Z,85.00
2023-03-19T02:52:20.332Z,85.30
2023-03-19T02:54:48.473Z,85.10
2023-03-19T02:57:16.721Z,84.90
2023-03-19T02:59:46.319Z,84.70
2023-03-19T03:02:14.383Z,85.00
2023-03-19T03:04:42.378Z,85.30
2023-03-19T03:07:10.581Z,85.60
2023-03-19T03:09:38.503Z,85.40
2023-03-19T03:12:07.219Z,85.80
2023-03-19T03:14:35.183Z,85.40
2023-03-19T03:17:04.509Z,85.90
2023-03-19T03:19:32.536Z,86.10
2023-03-19T03:22:00.983Z,86.50
2023-03-19T03:24:28.976Z,86.70
2023-03-19T03:26:56.871Z,86.10
2023-03-19T03:29:25.408Z,85.50
2023-03-19T03:31:53.435Z,86.20
2023-03-19T03:34:23.320Z,86.20
2023-03-19T03:36:51.261Z,88.20
2023-03-19T03:39:19.876Z,87.50
2023-03-19T03:41:47.794Z,87.40
2023-03-19T03:44:15.847Z,88.00
2023-03-19T03:46:44.454Z,88.50
2023-03-19T03:49:12.485Z,87.60
2023-03-19T03:51:42.294Z,87.30
2023-03-19T03:54:10.307Z,87.00
2023-03-19T03:56:38.324Z,87.30
2023-03-19T03:59:06.362Z,87.70
2023-03-19T04:01:34.968Z,88.20
2023-03-19T04:04:02.903Z,88.40
2023-03-19T04:06:31.082Z,89.00
2023-03-19T04:09:00.868Z,88.30
2023-03-19T04:11:29.546Z,87.80
2023-03-19T04:13:57.688Z,88.30
2023-03-19T04:16:26.160Z,89.30
2023-03-19T04:18:54.192Z,88.70
2023-03-19T04:21:22.273Z,88.60
2023-03-19T04:23:50.254Z,88.10
2023-03-19T04:26:19.645Z,88.20
2023-03-19T04:28:47.538Z,88.40
2023-03-19T04:31:15.672Z,88.80
2023-03-19T04:33:44.447Z,88.50
2023-03-19T04:36:12.576Z,88.60
2023-03-19T04:38:40.469Z,88.50
2023-03-19T04:41:08.923Z,88.60
2023-03-19T04:43:38.189Z,88.80
2023-03-19T04:46:08.075Z,90.00
2023-03-19T04:48:37.664Z,90.30
2023-03-19T04:51:08.563Z,89.60
2023-03-19T04:53:37.737Z,88.90
2023-03-19T04:56:06.898Z,89.20
2023-03-19T04:58:34.865Z,89.50
2023-03-19T05:01:04.322Z,90.00
2023-03-19T05:03:32.331Z,89.90
2023-03-19T05:06:00.274Z,90.00
2023-03-19T05:08:28.452Z,89.70
2023-03-19T05:10:56.357Z,90.00
2023-03-19T05:13:25.092Z,89.70
2023-03-19T05:15:54.991Z,89.90
2023-03-19T05:18:24.817Z,89.50
2023-03-19T05:20:53.294Z,89.90
2023-03-19T05:23:21.313Z,90.50
2023-03-19T05:25:49.653Z,90.40
2023-03-19T05:28:17.780Z,90.70
2023-03-19T05:30:46.607Z,90.30
2023-03-19T05:33:14.593Z,90.30
2023-03-19T05:35:44.005Z,90.20
2023-03-19T05:38:12.373Z,90.50
2023-03-19T05:40:41.984Z,90.50
2023-03-19T05:43:10.438Z,90.40
2023-03-19T05:45:39.568Z,90.10
2023-03-19T05:48:09.154Z,90.50
2023-03-19T05:50:37.092Z,90.80
2023-03-19T05:53:06.556Z,90.70
2023-03-19T05:55:34.469Z,90.80
2023-03-19T05:58:02.371Z,91.00
2023-03-19T06:00:30.298Z,91.10
2023-03-19T06:02:58.296Z,91.30
2023-03-19T06:05:26.536Z,91.40
2023-03-19T06:07:54.922Z,91.40
2023-03-19T06:10:24.299Z,91.10
2023-03-19T06:12:52.354Z,91.00
2023-03-19T06:15:20.301Z,91.10
2023-03-19T06:17:48.527Z,91.40
2023-03-19T06:20:16.602Z,92.10
2023-03-19T06:22:45.453Z,91.40
2023-03-19T06:25:13.380Z,91.00
2023-03-19T06:27:42.605Z,90.90
2023-03-19T06:30:12.181Z,91.00
2023-03-19T06:32:40.486Z,91.30
2023-03-19T06:35:08.945Z,91.40
2023-03-19T06:37:37.677Z,92.00
2023-03-19T06:40:06.541Z,90.80
2023-03-19T06:42:34.625Z,90.90
2023-03-19T06:45:03.985Z,90.10
2023-03-19T06:47:31.870Z,89.30
2023-03-19T06:50:00.909Z,89.70
2023-03-19T06:52:28.855Z,88.20
2023-03-19T06:54:56.858Z,87.80
2023-03-19T06:57:24.769Z,88.60
2023-03-19T06:59:52.689Z,88.80
2023-03-19T07:02:22.163Z,88.10
2023-03-19T07:04:50.564Z,87.90
2023-03-19T07:07:18.509Z,87.90
2023-03-19T07:09:46.455Z,88.20
2023-03-19T07:12:14.605Z,86.90
2023-03-19T07:14:42.746Z,86.70
2023-03-19T07:17:11.434Z,85.20
2023-03-19T07:19:40.988Z,84.30
2023-03-19T07:22:09.112Z,86.40
2023-03-19T07:24:37.077Z,84.90
2023-03-19T07:27:05.680Z,83.20
2023-03-19T07:29:33.944Z,84.00
2023-03-19T07:32:01.900Z,84.70
2023-03-19T07:34:29.977Z,86.00
2023-03-19T07:36:59.339Z,84.70
2023-03-19T07:39:27.283Z,85.20
2023-03-19T07:41:55.160Z,84.80
2023-03-19T07:44:23.064Z,84.90
2023-03-19T07:46:51.024Z,84.00
2023-03-19T07:49:18.922Z,83.30
2023-03-19T07:51:46.828Z,83.90
2023-03-19T07:54:16.371Z,81.70
2023-03-19T07:56:44.322Z,80.40
2023-03-19T07:59:12.395Z,81.80
2023-03-19T08:01:40.535Z,81.00
2023-03-19T08:04:08.710Z,81.70
2023-03-19T08:06:38.438Z,82.20
2023-03-19T08:09:06.858Z,82.70
2023-03-19T08:11:36.968Z,81.40
2023-03-19T08:14:05.086Z,84.30
2023-03-19T08:16:33.052Z,83.60
2023-03-19T08:19:00.998Z,82.80
2023-03-19T08:21:29.716Z,82.80
2023-03-19T08:23:57.594Z,81.50
2023-03-19T08:26:25.513Z,82.50
2023-03-19T08:28:55.186Z,82.50
2023-03-19T08:31:23.404Z,84.90
2023-03-19T08:33:51.601Z,83.60
2023-03-19T08:36:19.831Z,82.30
2023-03-19T08:38:47.818Z,82.70
2023-03-19T08:41:15.773Z,81.40
2023-03-19T08:43:43.717Z,82.50
2023-03-19T08:46:13.014Z,82.50
2023-03-19T08:48:41.575Z,81.40
2023-03-19T08:51:10.665Z,81.90
2023-03-19T08:53:39.898Z,81.50
2023-03-19T08:56:08.677Z,80.60
2023-03-19T08:58:36.790Z,80.80
2023-03-19T09:01:06.524Z,82.40
2023-03-19T09:03:36.048Z,81.70
2023-03-19T09:06:05.946Z,81.90
2023-03-19T09:08:34.372Z,80.40
2023-03-19T09:11:02.767Z,79.80
2023-03-19T09:13:31.041Z,81.00
2023-03-19T09:15:59.099Z,79.50
2023-03-19T09:18:27.175Z,79.40
2023-03-19T09:20:57.064Z,79.30
2023-03-19T09:23:25.318Z,80.10
2023-03-19T09:25:53.321Z,79.20
2023-03-19T09:28:21.803Z,80.00
2023-03-19T09:30:51.326Z,78.40
2023-03-19T09:33:21.203Z,78.10
2023-03-19T09:35:53.393Z,78.20
2023-03-19T09:38:23.618Z,78.10
2023-03-19T09:41:03.470Z,79.30
2023-03-19T09:43:47.442Z,79.40
2023-03-19T09:46:22.545Z,77.80
2023-03-19T09:48:55.127Z,77.50
2023-03-19T09:51:30.639Z,78.40
2023-03-19T09:54:03.826Z,78.20
2023-03-19T09:56:34.008Z,76.10
2023-03-19T09:59:03.215Z,76.40
2023-03-19T10:01:37.185Z,76.30
2023-03-19T10:04:33.821Z,76.90
2023-03-19T10:07:10.182Z,77.30
2023-03-19T10:09:56.059Z,77.00
2023-03-19T10:12:36.109Z,77.00
2023-03-19T10:15:16.498Z,76.40
2023-03-19T10:17:53.067Z,76.30
2023-03-19T10:20:30.253Z,76.80
2023-03-19T10:23:04.629Z,76.10
2023-03-19T10:25:34.796Z,76.40
2023-03-19T10:28:14.570Z,76.80
2023-03-19T10:30:43.845Z,74.90
2023-03-19T10:33:22.973Z,76.40
2023-03-19T10:35:58.205Z,76.00
2023-03-19T10:38:28.040Z,75.60
2023-03-19T10:41:12.374Z,75.70
2023-03-19T10:43:42.204Z,76.20
2023-03-19T10:46:14.416Z,76.60
2023-03-19T10:48:46.877Z,75.80
2023-03-19T10:51:17.469Z,76.00
2023-03-19T10:53:45.688Z,76.00
2023-03-19T10:56:23.041Z,74.00
2023-03-19T10:59:00.068Z,73.60
2023-03-19T11:01:29.579Z,74.20
2023-03-19T11:03:58.709Z,74.00
2023-03-19T11:06:32.065Z,73.80
2023-03-19T11:09:02.187Z,73.50
2023-03-19T11:11:43.714Z,73.20
2023-03-19T11:14:16.965Z,74.00
2023-03-19T11:16:50.383Z,73.10
2023-03-19T11:19:21.434Z,72.90
2023-03-19T11:22:21.082Z,73.70
2023-03-19T11:24:54.790Z,73.00
2023-03-19T11:27:32.295Z,73.10
2023-03-19T11:30:00.348Z,71.90
2023-03-19T11:33:01.984Z,72.90
2023-03-19T11:35:34.212Z,73.00
2023-03-19T11:38:04.558Z,73.20
2023-03-19T11:40:47.384Z,73.80
2023-03-19T11:43:42.288Z,72.60
2023-03-19T11:46:24.498Z,73.30
2023-03-19T11:49:12.250Z,74.10
2023-03-19T11:51:47.647Z,72.60
2023-03-19T11:54:24.442Z,72.00
2023-03-19T11:56:59.579Z,72.00
2023-03-19T11:59:44.042Z,71.80
2023-03-19T12:02:33.742Z,72.60
2023-03-19T12:05:14.542Z,71.10
2023-03-19T12:07:48.439Z,70.80
2023-03-19T12:10:35.832Z,70.80
2023-03-19T12:13:15.313Z,71.80
2023-03-19T12:15:57.023Z,72.40
2023-03-19T12:18:57.755Z,72.10
2023-03-19T12:21:36.170Z,72.90
2023-03-19T12:24:07.913Z,73.50
2023-03-19T12:26:46.225Z,73.90
2023-03-19T12:29:22.020Z,71.80
2023-03-19T12:32:07.825Z,72.50
2023-03-19T12:34:41.507Z,72.40
2023-03-19T12:37:19.359Z,71.80
2023-03-19T12:39:55.771Z,71.40
2023-03-19T12:42:29.637Z,71.90
2023-03-19T12:45:00.587Z,71.20
2023-03-19T12:47:35.258Z,71.30
2023-03-19T12:50:08.325Z,71.00
2023-03-19T12:52:39.010Z,71.10
2023-03-19T12:55:17.609Z,72.00
2023-03-19T12:57:49.741Z,71.80
2023-03-19T13:00:25.352Z,72.20
2023-03-19T13:03:01.390Z,73.40
2023-03-19T13:05:36.884Z,72.60
2023-03-19T13:08:11.783Z,72.60
2023-03-19T13:10:39.967Z,72.40
2023-03-19T13:13:34.172Z,72.00
2023-03-19T13:16:08.489Z,72.10
2023-03-19T13:18:43.021Z,72.20
2023-03-19T13:21:24.560Z,73.10
2023-03-19T13:24:05.716Z,73.60
2023-03-19T13:26:35.655Z,72.70
2023-03-19T13:29:10.069Z,73.60
2023-03-19T13:31:38.996Z,74.30
2023-03-19T13:34:21.466Z,74.90
2023-03-19T13:36:55.096Z,74.20
2023-03-19T13:39:28.532Z,75.30
2023-03-19T13:42:12.719Z,74.80
2023-03-19T13:44:42.799Z,73.30
2023-03-19T13:47:43.446Z,73.10
2023-03-19T13:50:31.307Z,73.60
2023-03-19T13:53:23.282Z,73.60
2023-03-19T13:55:58.664Z,73.60
2023-03-19T13:58:46.073Z,73.70
2023-03-19T14:01:44.506Z,72.90
2023-03-19T14:04:21.414Z,72.00
2023-03-19T14:06:54.438Z,71.70
2023-03-19T14:09:38.812Z,72.90
2023-03-19T14:12:29.615Z,70.90
2023-03-19T14:15:01.190Z,71.70
2023-03-19T14:17:33.344Z,72.30
2023-03-19T14:20:09.244Z,71.40
2023-03-19T14:22:40.055Z,70.70
2023-03-19T14:25:20.413Z,71.40
2023-03-19T14:27:51.499Z,71.10
2023-03-19T14:30:28.532Z,71.60
2023-03-19T14:32:58.690Z,71.50
2023-03-19T14:35:27.751Z,71.40
2023-03-19T14:37:57.764Z,71.90
2023-03-19T14:40:28.219Z,72.10
2023-03-19T14:43:04.162Z,71.90
2023-03-19T14:45:47.416Z,72.20
2023-03-19T14:48:26.531Z,72.00
2023-03-19T14:51:21.524Z,72.30
2023-03-19T14:53:54.570Z,72.10
2023-03-19T14:56:27.110Z,72.70
2023-03-19T14:58:56.972Z,72.30
2023-03-19T15:01:27.888Z,72.00
2023-03-19T15:03:59.810Z,72.30
2023-03-19T15:06:34.217Z,72.20
2023-03-19T15:09:05.388Z,72.20
2023-03-19T15:11:51.865Z,72.50
2023-03-19T15:14:35.351Z,72.30
2023-03-19T15:17:10.833Z,72.50
2023-03-19T15:19:40.981Z,73.40
2023-03-19T15:22:15.274Z,73.50
2023-03-19T15:24:44.966Z,73.10
2023-03-19T15:27:19.217Z,74.00
2023-03-19T15:29:49.264Z,74.10
2023-03-19T15:32:54.488Z,74.30
2023-03-19T15:35:30.766Z,73.90
2023-03-19T15:38:02.439Z,73.90
2023-03-19T15:40:33.781Z,74.20
2023-03-19T15:43:03.559Z,74.80
2023-03-19T15:45:35.146Z,73.90
2023-03-19T15:48:07.860Z,74.50
2023-03-19T15:50:38.568Z,74.80
2023-03-19T15:53:11.375Z,75.20
2023-03-19T15:55:41.121Z,74.90
2023-03-19T15:58:13.125Z,75.60
2023-03-19T16:00:42.562Z,75.50
2023-03-19T16:03:18.191Z,75.60
2023-03-19T16:05:46.363Z,75.80
2023-03-19T16:08:20.925Z,75.80
2023-03-19T16:10:50.439Z,75.90
2023-03-19T16:13:29.650Z,75.80
2023-03-19T16:16:08.022Z,75.70
2023-03-19T16:18:54.494Z,75.70
2023-03-19T16:21:25.584Z,75.70
2023-03-19T16:23:57.417Z,75.80
2023-03-19T16:26:31.548Z,76.30
2023-03-19T16:29:13.041Z,76.30
2023-03-19T16:31:46.261Z,76.40
2023-03-19T16:34:40.749Z,76.60
2023-03-19T16:37:27.946Z,76.70
2023-03-19T16:39:57.540Z,76.70
2023-03-19T16:42:39.132Z,77.20
2023-03-19T16:45:26.307Z,77.60
2023-03-19T16:47:56.718Z,77.50
2023-03-19T16:50:29.917Z,77.70
2023-03-19T16:53:00.405Z,78.30
2023-03-19T16:55:32.008Z,79.00
2023-03-19T16:58:04.381Z,78.90
2023-03-19T17:00:34.467Z,79.10
2023-03-19T17:03:02.957Z,79.00
2023-03-19T17:05:31.461Z,79.70
2023-03-19T17:07:59.433Z,80.70
2023-03-19T17:10:30.177Z,80.50
2023-03-19T17:12:58.809Z,80.80
2023-03-19T17:15:31.189Z,82.00
2023-03-19T17:18:00.311Z,81.00
2023-03-19T17:20:32.722Z,80.80
2023-03-19T17:23:00.728Z,81.20
2023-03-19T17:25:28.807Z,80.80
2023-03-19T17:27:56.851Z,80.90
2023-03-19T17:30:26.030Z,81.00
2023-03-19T17:32:57.493Z,81.00
2023-03-19T17:35:26.001Z,81.60
2023-03-19T17:37:54.105Z,81.00
2023-03-19T17:40:23.607Z,80.60
2023-03-19T17:42:52.358Z,80.80
2023-03-19T17:45:25.145Z,81.50
2023-03-19T17:47:56.401Z,81.50
2023-03-19T17:50:28.216Z,82.30
2023-03-19T17:52:56.312Z,82.60
2023-03-19T17:55:26.990Z,82.70
2023-03-19T17:57:56.038Z,82.40
2023-03-19T18:00:25.387Z,82.50
2023-03-19T18:02:55.325Z,82.50
2023-03-19T18:05:27.308Z,83.30
2023-03-19T18:07:57.224Z,83.30
2023-03-19T18:10:29.507Z,84.10
2023-03-19T18:12:59.998Z,84.00
2023-03-19T18:15:29.164Z,83.50
2023-03-19T18:17:59.936Z,84.00
2023-03-19T18:20:34.678Z,85.00
2023-03-19T18:23:03.037Z,84.70
2023-03-19T18:25:32.202Z,85.00
2023-03-19T18:28:00.108Z,85.00
2023-03-19T18:30:31.469Z,85.50
2023-03-19T18:33:01.467Z,86.30
2023-03-19T18:35:33.847Z,87.30
2023-03-19T18:38:02.060Z,87.40
2023-03-19T18:40:31.780Z,87.70
2023-03-19T18:43:01.137Z,86.40
2023-03-19T18:45:30.903Z,86.40
2023-03-19T18:48:00.340Z,86.50
2023-03-19T18:50:33.005Z,86.30
2023-03-19T18:53:01.227Z,86.30
2023-03-19T18:55:32.054Z,86.80
2023-03-19T18:58:02.814Z,86.80
2023-03-19T19:00:33.568Z,86.50
2023-03-19T19:03:03.144Z,88.10
2023-03-19T19:05:33.928Z,88.60
2023-03-19T19:08:03.248Z,89.40
2023-03-19T19:10:35.175Z,90.10
2023-03-19T19:13:04.152Z,90.80
2023-03-19T19:15:35.932Z,89.60
2023-03-19T19:18:15.572Z,89.70
2023-03-19T19:20:46.946Z,89.00
2023-03-19T19:23:16.400Z,88.50
2023-03-19T19:25:46.823Z,88.50
2023-03-19T19:28:20.737Z,89.60
2023-03-19T19:30:50.740Z,90.10
2023-03-19T19:33:20.688Z,90.40
2023-03-19T19:35:51.971Z,89.70
2023-03-19T19:38:20.000Z,89.70
2023-03-19T19:40:50.419Z,89.50
2023-03-19T19:43:20.908Z,89.30
2023-03-19T19:45:51.548Z,89.30
2023-03-19T19:48:22.596Z,89.50
2023-03-19T19:50:53.432Z,89.30
2023-03-19T19:53:21.767Z,90.10
2023-03-19T19:55:49.748Z,90.10
2023-03-19T19:58:21.254Z,90.30
2023-03-19T20:01:02.292Z,90.30
2023-03-19T20:03:33.745Z,90.30
2023-03-19T20:06:03.475Z,90.40
2023-03-19T20:08:31.575Z,90.20
2023-03-19T20:10:59.630Z,90.30
2023-03-19T20:13:29.021Z,90.10
2023-03-19T20:15:59.100Z,90.00
2023-03-19T20:18:30.993Z,89.60
2023-03-19T20:21:00.461Z,89.80
2023-03-19T20:23:29.732Z,90.20
2023-03-19T20:25:58.236Z,90.40
2023-03-19T20:28:32.322Z,90.20
2023-03-19T20:31:01.207Z,90.40
2023-03-19T20:33:31.143Z,90.30
2023-03-19T20:35:59.474Z,91.20
2023-03-19T20:38:29.380Z,91.40
2023-03-19T20:40:58.837Z,91.40
2023-03-19T20:43:29.804Z,91.10
2023-03-19T20:45:58.984Z,91.30
2023-03-19T20:48:27.779Z,91.10
2023-03-19T20:50:56.238Z,91.30
2023-03-19T20:53:24.346Z,91.30
2023-03-19T20:55:54.010Z,91.60
2023-03-19T20:58:27.428Z,91.50
2023-03-19T21:00:56.346Z,91.50
2023-03-19T21:03:26.388Z,91.30
2023-03-19T21:05:58.044Z,91.50
2023-03-19T21:08:32.307Z,91.60
2023-03-19T21:11:02.608Z,91.80
2023-03-19T21:13:31.827Z,91.70
2023-03-19T21:15:59.995Z,91.60
2023-03-19T21:18:28.000Z,91.70
2023-03-19T21:20:57.645Z,91.80
2023-03-19T21:23:31.416Z,91.60
2023-03-19T21:26:03.868Z,91.60
2023-03-19T21:28:36.462Z,91.70
2023-03-19T21:31:04.599Z,91.80
2023-03-19T21:33:34.635Z,92.00
2023-03-19T21:36:03.976Z,92.10
2023-03-19T21:38:32.764Z,92.30
2023-03-19T21:41:04.920Z,92.40
2023-03-19T21:43:35.881Z,92.40
2023-03-19T21:46:22.833Z,92.40
2023-03-19T21:48:51.274Z,92.60
2023-03-19T21:51:19.222Z,92.80
2023-03-19T21:53:47.578Z,92.70
2023-03-19T21:56:22.777Z,92.80
2023-03-19T21:58:52.591Z,93.10
2023-03-19T22:01:23.613Z,92.80
2023-03-19T22:03:52.175Z,92.70
2023-03-19T22:06:21.956Z,92.80
2023-03-19T22:08:50.949Z,92.80
2023-03-19T22:11:25.389Z,93.00
2023-03-19T22:13:53.534Z,93.10
2023-03-19T22:16:23.893Z,93.00
2023-03-19T22:18:53.307Z,93.00
2023-03-19T22:21:23.352Z,93.00
2023-03-19T22:23:52.769Z,93.20
2023-03-19T22:26:30.081Z,93.00
2023-03-19T22:29:00.718Z,93.40
2023-03-19T22:31:29.177Z,93.60
2023-03-19T22:33:57.553Z,94.00
2023-03-19T22:36:25.531Z,93.80
2023-03-19T22:38:53.492Z,93.50
2023-03-19T22:41:28.595Z,93.50
2023-03-19T22:43:58.109Z,93.50
2023-03-19T22:46:27.659Z,93.70
2023-03-19T22:48:56.152Z,93.80
2023-03-19T22:51:26.581Z,93.90
2023-03-19T22:53:55.398Z,93.90
2023-03-19T22:56:23.565Z,94.00
2023-03-19T22:58:52.979Z,94.30
2023-03-19T23:01:35.519Z,94.00
2023-03-19T23:04:18.851Z,93.90
2023-03-19T23:06:47.229Z,93.90
2023-03-19T23:09:16.809Z,93.80
2023-03-19T23:11:44.822Z,93.90
2023-03-19T23:14:28.041Z,93.90
2023-03-19T23:19:29.094Z,93.90
2023-03-19T23:21:57.783Z,93.90
2023-03-19T23:24:26.526Z,94.00
2023-03-19T23:26:56.225Z,93.80
2023-03-19T23:29:29.424Z,94.30
2023-03-19T23:31:58.836Z,94.10
2023-03-19T23:34:28.373Z,93.90
2023-03-19T23:36:56.787Z,93.90
2023-03-19T23:39:25.508Z,94.00
2023-03-19T23:41:56.960Z,94.10
2023-03-19T23:44:28.833Z,94.10
2023-03-19T23:46:59.905Z,94.00
2023-03-19T23:49:30.731Z,93.90
2023-03-19T23:51:59.128Z,94.00
2023-03-19T23:54:32.177Z,93.80
2023-03-19T23:57:02.943Z,93.90
2023-03-19T23:59:34.588Z,94.00
